createdAt,value
2016-10-31T00:00:17.476Z,0
2016-10-31T00:01:17.249Z,0
2016-10-31T00:02:17.236Z,0
2016-10-31T00:03:17.530Z,0
2016-10-31T00:04:17.834Z,0
2016-10-31T00:05:17.188Z,0
2016-10-31T00:06:17.172Z,0
2016-10-31T00:07:17.793Z,0
2016-10-31T00:08:17.139Z,0
2016-10-31T00:09:17.128Z,0
2016-10-31T00:10:17.110Z,0
2016-10-31T00:11:17.156Z,0
2016-10-31T00:12:17.077Z,0
2016-10-31T00:13:17.402Z,0
2016-10-31T00:14:17.041Z,0
2016-10-31T00:15:17.029Z,0
2016-10-31T00:16:17.002Z,0
2016-10-31T00:17:16.999Z,0
2016-10-31T00:18:16.985Z,0
2016-10-31T00:19:17.287Z,0
2016-10-31T00:20:16.972Z,0
2016-10-31T00:21:16.925Z,0
2016-10-31T00:22:16.906Z,0
2016-10-31T00:23:16.894Z,0
2016-10-31T00:24:16.875Z,0
2016-10-31T00:25:16.872Z,0
2016-10-31T00:26:16.859Z,0
2016-10-31T00:27:16.835Z,0
2016-10-31T00:28:16.849Z,0
2016-10-31T00:29:16.806Z,0
2016-10-31T00:30:16.786Z,0
2016-10-31T00:31:16.772Z,0
2016-10-31T00:32:16.753Z,0
2016-10-31T00:33:16.744Z,0
2016-10-31T00:34:16.734Z,0
2016-10-31T00:35:16.704Z,0
2016-10-31T00:36:17.003Z,0
2016-10-31T00:37:17.015Z,0
2016-10-31T00:38:16.673Z,0
2016-10-31T00:39:16.644Z,0
2016-10-31T00:40:16.630Z,0
2016-10-31T00:41:16.618Z,0
2016-10-31T00:42:16.601Z,0
2016-10-31T00:43:16.586Z,0
2016-10-31T00:44:16.881Z,0
2016-10-31T00:45:17.178Z,0
2016-10-31T00:46:16.850Z,0
2016-10-31T00:47:16.520Z,0
2016-10-31T00:48:17.126Z,0
2016-10-31T00:49:16.494Z,0
2016-10-31T00:50:16.485Z,0
2016-10-31T00:51:17.139Z,0
2016-10-31T00:52:16.453Z,0
2016-10-31T00:53:16.739Z,0
2016-10-31T00:54:16.736Z,0
2016-10-31T00:55:16.711Z,0
2016-10-31T00:56:16.388Z,0
2016-10-31T00:57:16.367Z,0
2016-10-31T00:58:16.668Z,0
2016-10-31T00:59:16.970Z,0
2016-10-31T01:00:16.362Z,0
2016-10-31T01:01:16.313Z,0
2016-10-31T01:02:16.353Z,0
2016-10-31T01:03:16.596Z,0
2016-10-31T01:04:16.572Z,0
2016-10-31T01:05:16.246Z,0
2016-10-31T01:06:16.262Z,0
2016-10-31T01:07:16.219Z,0
2016-10-31T01:08:16.563Z,0
2016-10-31T01:09:16.545Z,0
2016-10-31T01:10:16.487Z,0
2016-10-31T01:11:16.158Z,0
2016-10-31T01:12:16.144Z,0
2016-10-31T01:13:16.132Z,0
2016-10-31T01:14:16.108Z,0
2016-10-31T01:15:16.093Z,0
2016-10-31T01:16:16.076Z,0
2016-10-31T01:17:16.145Z,0
2016-10-31T01:18:16.047Z,0
2016-10-31T01:19:16.039Z,0
2016-10-31T01:20:16.023Z,0
2016-10-31T01:21:15.999Z,0
2016-10-31T01:22:15.997Z,0
2016-10-31T01:23:16.285Z,0
2016-10-31T01:24:15.952Z,0
2016-10-31T01:25:16.253Z,0
2016-10-31T01:26:15.928Z,0
2016-10-31T01:27:15.919Z,0
2016-10-31T01:28:15.936Z,0
2016-10-31T01:29:15.880Z,0
2016-10-31T01:30:15.901Z,0
2016-10-31T01:31:15.852Z,0
2016-10-31T01:32:15.827Z,0
2016-10-31T01:33:15.823Z,0
2016-10-31T01:34:15.808Z,0
2016-10-31T01:35:16.114Z,0
2016-10-31T01:36:15.771Z,0
2016-10-31T01:37:15.758Z,0
2016-10-31T01:38:16.059Z,0
2016-10-31T01:39:15.732Z,0
2016-10-31T01:40:15.748Z,0
2016-10-31T01:41:15.693Z,0
2016-10-31T01:42:15.678Z,0
2016-10-31T01:43:15.666Z,0
2016-10-31T01:44:15.655Z,0
2016-10-31T01:45:16.274Z,0
2016-10-31T01:46:15.661Z,0
2016-10-31T01:47:15.608Z,0
2016-10-31T01:48:15.597Z,0
2016-10-31T01:49:15.569Z,0
2016-10-31T01:50:15.884Z,0
2016-10-31T01:51:15.548Z,0
2016-10-31T01:52:15.847Z,0
2016-10-31T01:53:15.523Z,0
2016-10-31T01:54:15.925Z,0
2016-10-31T01:55:15.832Z,0
2016-10-31T01:56:15.473Z,0
2016-10-31T01:57:15.778Z,0
2016-10-31T01:58:15.435Z,0
2016-10-31T01:59:15.426Z,0
2016-10-31T02:00:15.618Z,0
2016-10-31T02:01:15.400Z,0
2016-10-31T02:02:15.384Z,0
2016-10-31T02:03:15.378Z,0
2016-10-31T02:04:15.354Z,0
2016-10-31T02:05:15.329Z,0
2016-10-31T02:06:15.636Z,0
2016-10-31T02:07:15.308Z,0
2016-10-31T02:08:15.285Z,0
2016-10-31T02:09:15.278Z,0
2016-10-31T02:10:15.579Z,0
2016-10-31T02:11:15.242Z,0
2016-10-31T02:12:15.226Z,0
2016-10-31T02:13:15.266Z,0
2016-10-31T02:14:15.827Z,0
2016-10-31T02:15:15.194Z,0
2016-10-31T02:16:15.181Z,0
2016-10-31T02:17:15.466Z,0
2016-10-31T02:18:15.142Z,0
2016-10-31T02:19:15.441Z,0
2016-10-31T02:20:15.107Z,0
2016-10-31T02:21:15.095Z,0
2016-10-31T02:22:15.391Z,0
2016-10-31T02:23:15.380Z,0
2016-10-31T02:24:15.084Z,0
2016-10-31T02:25:15.347Z,0
2016-10-31T02:26:15.012Z,0
2016-10-31T02:27:15.311Z,0
2016-10-31T02:28:15.647Z,0
2016-10-31T02:29:14.968Z,0
2016-10-31T02:30:14.955Z,0
2016-10-31T02:31:14.989Z,0
2016-10-31T02:32:14.975Z,0
2016-10-31T02:33:14.909Z,0
2016-10-31T02:34:15.844Z,0
2016-10-31T02:35:14.892Z,0
2016-10-31T02:36:14.865Z,0
2016-10-31T02:37:15.171Z,0
2016-10-31T02:38:15.161Z,0
2016-10-31T02:39:14.817Z,0
2016-10-31T02:40:14.816Z,0
2016-10-31T02:41:15.106Z,0
2016-10-31T02:42:14.818Z,0
2016-10-31T02:43:15.076Z,0
2016-10-31T02:44:15.060Z,0
2016-10-31T02:45:14.768Z,0
2016-10-31T02:46:14.715Z,0
2016-10-31T02:47:14.712Z,0
2016-10-31T02:48:15.020Z,0
2016-10-31T02:49:14.675Z,0
2016-10-31T02:50:14.692Z,0
2016-10-31T02:51:14.684Z,0
2016-10-31T02:52:14.630Z,0
2016-10-31T02:53:14.934Z,0
2016-10-31T02:54:14.597Z,0
2016-10-31T02:55:14.618Z,0
2016-10-31T02:56:14.883Z,0
2016-10-31T02:57:14.561Z,0
2016-10-31T02:58:14.581Z,0
2016-10-31T02:59:14.870Z,0
2016-10-31T03:00:14.510Z,0
2016-10-31T03:01:14.494Z,0
2016-10-31T03:02:14.795Z,0
2016-10-31T03:03:14.460Z,0
2016-10-31T03:04:14.768Z,0
2016-10-31T03:05:14.439Z,0
2016-10-31T03:06:14.450Z,0
2016-10-31T03:07:14.773Z,0
2016-10-31T03:08:14.702Z,0
2016-10-31T03:09:14.379Z,0
2016-10-31T03:10:14.356Z,0
2016-10-31T03:11:14.363Z,0
2016-10-31T03:12:14.649Z,0
2016-10-31T03:13:14.960Z,0
2016-10-31T03:14:14.985Z,0
2016-10-31T03:15:14.600Z,0
2016-10-31T03:16:14.267Z,0
2016-10-31T03:17:14.274Z,0
2016-10-31T03:18:14.563Z,0
2016-10-31T03:19:14.285Z,0
2016-10-31T03:20:14.590Z,0
2016-10-31T03:21:14.824Z,0
2016-10-31T03:22:14.184Z,0
2016-10-31T03:23:14.192Z,0
2016-10-31T03:24:14.150Z,0
2016-10-31T03:25:14.765Z,0
2016-10-31T03:26:14.451Z,0
2016-10-31T03:27:14.441Z,0
2016-10-31T03:28:14.121Z,0
2016-10-31T03:29:14.082Z,0
2016-10-31T03:30:14.431Z,0
2016-10-31T03:31:14.063Z,0
2016-10-31T03:32:14.064Z,0
2016-10-31T03:33:14.059Z,0
2016-10-31T03:34:14.045Z,0
2016-10-31T03:35:14.012Z,0
2016-10-31T03:36:13.971Z,0
2016-10-31T03:37:14.278Z,0
2016-10-31T03:38:13.952Z,0
2016-10-31T03:39:14.260Z,0
2016-10-31T03:40:14.237Z,0
2016-10-31T03:41:13.929Z,0
2016-10-31T03:42:13.893Z,0
2016-10-31T03:43:14.192Z,0
2016-10-31T03:44:13.861Z,0
2016-10-31T03:45:13.839Z,0
2016-10-31T03:46:13.831Z,0
2016-10-31T03:47:14.155Z,0
2016-10-31T03:48:13.833Z,0
2016-10-31T03:49:13.783Z,0
2016-10-31T03:50:13.819Z,0
2016-10-31T03:51:13.753Z,0
2016-10-31T03:52:13.736Z,0
2016-10-31T03:53:13.725Z,0
2016-10-31T03:54:14.363Z,0
2016-10-31T03:55:14.018Z,0
2016-10-31T03:56:13.724Z,0
2016-10-31T03:57:13.658Z,0
2016-10-31T03:58:13.965Z,0
2016-10-31T03:59:13.958Z,0
2016-10-31T04:00:13.873Z,0
2016-10-31T04:01:13.607Z,0
2016-10-31T04:02:13.590Z,0
2016-10-31T04:03:13.573Z,0
2016-10-31T04:04:13.887Z,0
2016-10-31T04:05:14.244Z,0
2016-10-31T04:06:13.666Z,0
2016-10-31T04:07:13.556Z,0
2016-10-31T04:08:13.508Z,0
2016-10-31T04:09:14.141Z,0
2016-10-31T04:10:13.850Z,0
2016-10-31T04:11:13.773Z,0
2016-10-31T04:12:13.440Z,0
2016-10-31T04:13:13.426Z,0
2016-10-31T04:14:13.472Z,0
2016-10-31T04:15:13.392Z,0
2016-10-31T04:16:13.692Z,0
2016-10-31T04:17:13.368Z,0
2016-10-31T04:18:13.347Z,0
2016-10-31T04:19:13.330Z,0
2016-10-31T04:20:13.632Z,0
2016-10-31T04:21:13.645Z,0
2016-10-31T04:22:13.623Z,0
2016-10-31T04:23:13.300Z,0
2016-10-31T04:24:13.260Z,0
2016-10-31T04:25:13.238Z,0
2016-10-31T04:26:13.222Z,0
2016-10-31T04:27:13.212Z,0
2016-10-31T04:28:13.825Z,0
2016-10-31T04:29:13.182Z,0
2016-10-31T04:30:13.162Z,0
2016-10-31T04:31:13.155Z,0
2016-10-31T04:32:13.133Z,0
2016-10-31T04:33:13.125Z,0
2016-10-31T04:34:13.107Z,0
2016-10-31T04:35:13.093Z,0
2016-10-31T04:36:13.721Z,0
2016-10-31T04:37:13.060Z,0
2016-10-31T04:38:13.357Z,0
2016-10-31T04:39:13.030Z,0
2016-10-31T04:40:13.011Z,0
2016-10-31T04:41:12.997Z,0
2016-10-31T04:42:13.633Z,0
2016-10-31T04:43:12.971Z,0
2016-10-31T04:44:13.267Z,0
2016-10-31T04:45:12.950Z,0
2016-10-31T04:46:12.920Z,0
2016-10-31T04:47:13.210Z,0
2016-10-31T04:48:12.887Z,0
2016-10-31T04:49:12.871Z,0
2016-10-31T04:50:13.197Z,0
2016-10-31T04:51:12.843Z,0
2016-10-31T04:52:12.821Z,0
2016-10-31T04:53:12.810Z,0
2016-10-31T04:54:13.110Z,0
2016-10-31T04:55:13.131Z,0
2016-10-31T04:56:13.431Z,0
2016-10-31T04:57:12.783Z,0
2016-10-31T04:58:12.736Z,0
2016-10-31T04:59:13.032Z,0
2016-10-31T05:00:12.701Z,0
2016-10-31T05:01:14.075Z,0
2016-10-31T05:02:12.689Z,0
2016-10-31T05:03:12.660Z,0
2016-10-31T05:04:12.643Z,0
2016-10-31T05:05:12.976Z,0
2016-10-31T05:06:12.709Z,0
2016-10-31T05:07:12.591Z,0
2016-10-31T05:08:12.891Z,0
2016-10-31T05:09:12.559Z,0
2016-10-31T05:10:12.856Z,0
2016-10-31T05:11:12.850Z,0
2016-10-31T05:12:12.530Z,0
2016-10-31T05:13:12.816Z,0
2016-10-31T05:14:12.495Z,0
2016-10-31T05:15:12.781Z,0
2016-10-31T05:16:12.823Z,0
2016-10-31T05:17:12.439Z,0
2016-10-31T05:18:12.425Z,0
2016-10-31T05:19:12.735Z,0
2016-10-31T05:20:12.741Z,0
2016-10-31T05:21:12.376Z,0
2016-10-31T05:22:12.359Z,0
2016-10-31T05:23:12.692Z,0
2016-10-31T05:24:12.331Z,0
2016-10-31T05:25:12.621Z,0
2016-10-31T05:26:12.301Z,0
2016-10-31T05:27:12.599Z,0
2016-10-31T05:28:12.261Z,0
2016-10-31T05:29:12.571Z,0
2016-10-31T05:30:12.880Z,0
2016-10-31T05:31:12.254Z,0
2016-10-31T05:32:12.524Z,0
2016-10-31T05:33:12.502Z,0
2016-10-31T05:34:12.176Z,0
2016-10-31T05:35:12.165Z,0
2016-10-31T05:36:12.145Z,0
2016-10-31T05:37:12.125Z,0
2016-10-31T05:38:12.435Z,0
2016-10-31T05:39:12.723Z,0
2016-10-31T05:40:12.393Z,0
2016-10-31T05:41:12.374Z,0
2016-10-31T05:42:12.086Z,0
2016-10-31T05:43:12.031Z,0
2016-10-31T05:44:12.327Z,0
2016-10-31T05:45:12.011Z,0
2016-10-31T05:46:11.992Z,0
2016-10-31T05:47:11.976Z,0
2016-10-31T05:48:11.960Z,0
2016-10-31T05:49:11.939Z,0
2016-10-31T05:50:11.922Z,0
2016-10-31T05:51:11.916Z,0
2016-10-31T05:52:11.947Z,0
2016-10-31T05:53:12.194Z,0
2016-10-31T05:54:11.863Z,0
2016-10-31T05:55:11.844Z,0
2016-10-31T05:56:11.866Z,0
2016-10-31T05:57:11.858Z,0
2016-10-31T05:58:11.825Z,0
2016-10-31T05:59:11.788Z,0
2016-10-31T06:00:11.976Z,0
2016-10-31T06:01:11.756Z,0
2016-10-31T06:02:11.753Z,0
2016-10-31T06:03:11.722Z,0
2016-10-31T06:04:11.709Z,0
2016-10-31T06:05:11.692Z,0
2016-10-31T06:06:11.672Z,0
2016-10-31T06:07:11.975Z,0
2016-10-31T06:08:11.649Z,0
2016-10-31T06:09:11.957Z,0
2016-10-31T06:10:12.262Z,0
2016-10-31T06:11:11.597Z,0
2016-10-31T06:12:11.585Z,0
2016-10-31T06:13:11.889Z,0
2016-10-31T06:14:11.600Z,0
2016-10-31T06:15:11.852Z,0
2016-10-31T06:16:11.867Z,0
2016-10-31T06:17:11.566Z,0
2016-10-31T06:18:11.489Z,0
2016-10-31T06:19:11.476Z,0
2016-10-31T06:20:11.774Z,0
2016-10-31T06:21:11.445Z,5
2016-10-31T06:22:11.424Z,5
2016-10-31T06:23:11.736Z,5
2016-10-31T06:24:11.395Z,5
2016-10-31T06:25:11.704Z,5
2016-10-31T06:26:11.716Z,5
2016-10-31T06:27:11.359Z,5
2016-10-31T06:28:11.337Z,5
2016-10-31T06:29:11.318Z,5
2016-10-31T06:30:11.607Z,10
2016-10-31T06:31:11.613Z,10
2016-10-31T06:32:11.900Z,10
2016-10-31T06:33:11.571Z,10
2016-10-31T06:34:11.314Z,10
2016-10-31T06:35:11.219Z,10
2016-10-31T06:36:11.525Z,15
2016-10-31T06:37:11.197Z,15
2016-10-31T06:38:11.187Z,15
2016-10-31T06:39:11.476Z,15
2016-10-31T06:40:11.143Z,15
2016-10-31T06:41:11.165Z,15
2016-10-31T06:42:11.423Z,15
2016-10-31T06:43:11.095Z,20
2016-10-31T06:44:11.388Z,20
2016-10-31T06:45:11.381Z,20
2016-10-31T06:46:11.052Z,20
2016-10-31T06:47:11.031Z,20
2016-10-31T06:48:11.373Z,20
2016-10-31T06:49:11.325Z,20
2016-10-31T06:50:11.925Z,20
2016-10-31T06:51:10.974Z,20
2016-10-31T06:52:10.967Z,25
2016-10-31T06:53:10.942Z,25
2016-10-31T06:54:10.922Z,25
2016-10-31T06:55:10.909Z,25
2016-10-31T06:56:10.888Z,25
2016-10-31T06:57:10.875Z,25
2016-10-31T06:58:10.885Z,25
2016-10-31T06:59:10.858Z,25
2016-10-31T07:00:10.823Z,25
2016-10-31T07:01:10.809Z,25
2016-10-31T07:02:11.433Z,25
2016-10-31T07:03:11.109Z,30
2016-10-31T07:04:10.765Z,30
2016-10-31T07:05:11.373Z,30
2016-10-31T07:06:11.361Z,30
2016-10-31T07:07:10.716Z,30
2016-10-31T07:08:10.700Z,30
2016-10-31T07:09:10.681Z,35
2016-10-31T07:10:10.677Z,35
2016-10-31T07:11:10.963Z,35
2016-10-31T07:12:10.634Z,40
2016-10-31T07:13:11.246Z,40
2016-10-31T07:14:10.600Z,45
2016-10-31T07:15:10.934Z,45
2016-10-31T07:16:10.571Z,45
2016-10-31T07:17:10.570Z,50
2016-10-31T07:18:10.543Z,50
2016-10-31T07:19:10.523Z,50
2016-10-31T07:20:10.819Z,55
2016-10-31T07:21:10.508Z,55
2016-10-31T07:22:11.123Z,60
2016-10-31T07:23:10.774Z,60
2016-10-31T07:24:10.771Z,65
2016-10-31T07:25:10.745Z,65
2016-10-31T07:26:10.419Z,65
2016-10-31T07:27:10.398Z,60
2016-10-31T07:28:10.425Z,60
2016-10-31T07:29:10.401Z,60
2016-10-31T07:30:10.682Z,65
2016-10-31T07:31:10.342Z,65
2016-10-31T07:32:10.646Z,70
2016-10-31T07:33:10.629Z,70
2016-10-31T07:34:10.336Z,70
2016-10-31T07:35:10.901Z,75
2016-10-31T07:36:10.256Z,75
2016-10-31T07:37:10.247Z,85
2016-10-31T07:38:10.563Z,90
2016-10-31T07:39:10.257Z,90
2016-10-31T07:40:10.826Z,80
2016-10-31T07:41:10.183Z,75
2016-10-31T07:42:10.488Z,70
2016-10-31T07:43:10.150Z,70
2016-10-31T07:44:10.139Z,70
2016-10-31T07:45:10.121Z,70
2016-10-31T07:46:10.111Z,70
2016-10-31T07:47:10.445Z,70
2016-10-31T07:48:10.118Z,65
2016-10-31T07:49:10.061Z,65
2016-10-31T07:50:10.048Z,60
2016-10-31T07:51:10.038Z,60
2016-10-31T07:52:10.016Z,60
2016-10-31T07:53:10.351Z,60
2016-10-31T07:54:10.934Z,60
2016-10-31T07:55:09.990Z,65
2016-10-31T07:56:10.614Z,60
2016-10-31T07:57:09.947Z,60
2016-10-31T07:58:10.016Z,60
2016-10-31T07:59:09.916Z,60
2016-10-31T08:00:10.632Z,60
2016-10-31T08:01:09.888Z,60
2016-10-31T08:02:10.193Z,60
2016-10-31T08:03:09.881Z,60
2016-10-31T08:04:09.861Z,60
2016-10-31T08:05:09.837Z,60
2016-10-31T08:06:10.133Z,60
2016-10-31T08:07:09.803Z,65
2016-10-31T08:08:09.796Z,65
2016-10-31T08:09:09.776Z,65
2016-10-31T08:10:09.768Z,65
2016-10-31T08:11:09.754Z,65
2016-10-31T08:12:10.050Z,65
2016-10-31T08:13:09.716Z,65
2016-10-31T08:14:10.014Z,65
2016-10-31T08:15:10.000Z,65
2016-10-31T08:16:09.719Z,65
2016-10-31T08:17:09.968Z,70
2016-10-31T08:18:10.265Z,70
2016-10-31T08:19:10.263Z,70
2016-10-31T08:20:09.959Z,70
2016-10-31T08:21:09.609Z,70
2016-10-31T08:22:10.211Z,70
2016-10-31T08:23:09.912Z,70
2016-10-31T08:24:09.878Z,70
2016-10-31T08:25:09.856Z,70
2016-10-31T08:26:09.842Z,70
2016-10-31T08:27:09.520Z,75
2016-10-31T08:28:09.812Z,75
2016-10-31T08:29:09.485Z,75
2016-10-31T08:30:09.807Z,75
2016-10-31T08:31:09.455Z,75
2016-10-31T08:32:09.749Z,75
2016-10-31T08:33:09.419Z,75
2016-10-31T08:34:09.406Z,75
2016-10-31T08:35:09.702Z,75
2016-10-31T08:36:09.377Z,105
2016-10-31T08:37:09.363Z,100
2016-10-31T08:38:09.349Z,75
2016-10-31T08:39:09.642Z,75
2016-10-31T08:40:09.336Z,75
2016-10-31T08:41:09.324Z,75
2016-10-31T08:42:09.620Z,75
2016-10-31T08:43:09.599Z,70
2016-10-31T08:44:09.295Z,75
2016-10-31T08:45:09.253Z,70
2016-10-31T08:46:09.245Z,75
2016-10-31T08:47:09.534Z,75
2016-10-31T08:48:09.576Z,75
2016-10-31T08:49:09.231Z,75
2016-10-31T08:50:09.184Z,75
2016-10-31T08:51:09.530Z,80
2016-10-31T08:52:09.470Z,80
2016-10-31T08:53:09.133Z,80
2016-10-31T08:54:09.484Z,80
2016-10-31T08:55:09.418Z,80
2016-10-31T08:56:09.130Z,85
2016-10-31T08:57:09.084Z,90
2016-10-31T08:58:09.382Z,95
2016-10-31T08:59:09.059Z,95
2016-10-31T09:00:09.667Z,100
2016-10-31T09:01:09.650Z,125
2016-10-31T09:02:09.007Z,165
2016-10-31T09:03:08.997Z,180
2016-10-31T09:04:08.977Z,110
2016-10-31T09:05:08.961Z,90
2016-10-31T09:06:08.952Z,85
2016-10-31T09:07:08.937Z,85
2016-10-31T09:08:08.948Z,80
2016-10-31T09:09:08.951Z,80
2016-10-31T09:10:08.915Z,80
2016-10-31T09:11:09.520Z,80
2016-10-31T09:12:09.200Z,80
2016-10-31T09:13:08.854Z,150
2016-10-31T09:14:08.855Z,245
2016-10-31T09:15:09.144Z,250
2016-10-31T09:16:09.129Z,190
2016-10-31T09:17:08.794Z,100
2016-10-31T09:18:08.835Z,105
2016-10-31T09:19:08.789Z,100
2016-10-31T09:20:08.767Z,90
2016-10-31T09:21:09.062Z,90
2016-10-31T09:22:08.737Z,100
2016-10-31T09:23:09.063Z,120
2016-10-31T09:24:08.709Z,110
2016-10-31T09:25:09.001Z,110
2016-10-31T09:26:08.676Z,120
2016-10-31T09:27:08.661Z,95
2016-10-31T09:28:08.970Z,105
2016-10-31T09:29:08.952Z,105
2016-10-31T09:30:08.933Z,105
2016-10-31T09:31:08.648Z,100
2016-10-31T09:32:08.597Z,95
2016-10-31T09:33:08.895Z,90
2016-10-31T09:34:08.566Z,90
2016-10-31T09:35:08.865Z,110
2016-10-31T09:36:08.855Z,125
2016-10-31T09:37:08.532Z,100
2016-10-31T09:38:08.530Z,95
2016-10-31T09:39:08.807Z,95
2016-10-31T09:40:08.827Z,95
2016-10-31T09:41:08.828Z,95
2016-10-31T09:42:08.460Z,100
2016-10-31T09:43:08.567Z,105
2016-10-31T09:44:08.444Z,105
2016-10-31T09:45:08.750Z,105
2016-10-31T09:46:08.721Z,115
2016-10-31T09:47:08.707Z,110
2016-10-31T09:48:08.393Z,105
2016-10-31T09:49:08.368Z,100
2016-10-31T09:50:08.706Z,100
2016-10-31T09:51:08.341Z,100
2016-10-31T09:52:08.953Z,100
2016-10-31T09:53:08.321Z,100
2016-10-31T09:54:08.617Z,100
2016-10-31T09:55:08.604Z,100
2016-10-31T09:56:09.217Z,100
2016-10-31T09:57:08.263Z,115
2016-10-31T09:58:08.672Z,125
2016-10-31T09:59:08.236Z,165
2016-10-31T10:00:08.594Z,120
2016-10-31T10:01:08.722Z,115
2016-10-31T10:02:08.209Z,120
2016-10-31T10:03:08.227Z,125
2016-10-31T10:04:08.243Z,195
2016-10-31T10:05:08.521Z,260
2016-10-31T10:06:08.164Z,150
2016-10-31T10:07:08.797Z,145
2016-10-31T10:08:09.075Z,280
2016-10-31T10:09:08.794Z,400
2016-10-31T10:10:08.764Z,325
2016-10-31T10:11:08.095Z,250
2016-10-31T10:12:08.778Z,160
2016-10-31T10:13:08.397Z,270
2016-10-31T10:14:08.084Z,255
2016-10-31T10:15:08.681Z,155
2016-10-31T10:16:08.075Z,125
2016-10-31T10:17:08.344Z,125
2016-10-31T10:18:08.044Z,130
2016-10-31T10:19:08.323Z,115
2016-10-31T10:20:08.058Z,120
2016-10-31T10:21:08.329Z,115
2016-10-31T10:22:08.633Z,115
2016-10-31T10:23:08.274Z,115
2016-10-31T10:24:07.956Z,120
2016-10-31T10:25:07.960Z,120
2016-10-31T10:26:07.925Z,115
2016-10-31T10:27:07.915Z,115
2016-10-31T10:28:08.531Z,125
2016-10-31T10:29:07.889Z,125
2016-10-31T10:30:08.246Z,180
2016-10-31T10:31:08.212Z,215
2016-10-31T10:32:08.203Z,175
2016-10-31T10:33:07.844Z,225
2016-10-31T10:34:07.907Z,230
2016-10-31T10:35:08.139Z,160
2016-10-31T10:36:08.136Z,140
2016-10-31T10:37:08.117Z,140
2016-10-31T10:38:07.781Z,140
2016-10-31T10:39:07.782Z,125
2016-10-31T10:40:07.755Z,125
2016-10-31T10:41:07.761Z,135
2016-10-31T10:42:08.059Z,145
2016-10-31T10:43:08.066Z,150
2016-10-31T10:44:07.727Z,255
2016-10-31T10:45:07.708Z,305
2016-10-31T10:46:07.716Z,205
2016-10-31T10:47:08.027Z,145
2016-10-31T10:48:07.986Z,185
2016-10-31T10:49:07.702Z,210
2016-10-31T10:50:08.007Z,150
2016-10-31T10:51:07.696Z,125
2016-10-31T10:52:07.632Z,125
2016-10-31T10:53:07.620Z,125
2016-10-31T10:54:07.939Z,135
2016-10-31T10:55:07.945Z,125
2016-10-31T10:56:07.937Z,120
2016-10-31T10:57:07.587Z,125
2016-10-31T10:58:07.604Z,125
2016-10-31T10:59:07.579Z,175
2016-10-31T11:00:07.572Z,195
2016-10-31T11:01:08.522Z,155
2016-10-31T11:02:07.884Z,205
2016-10-31T11:03:07.830Z,195
2016-10-31T11:04:07.543Z,195
2016-10-31T11:05:07.503Z,265
2016-10-31T11:06:07.485Z,310
2016-10-31T11:07:07.796Z,225
2016-10-31T11:08:07.469Z,245
2016-10-31T11:09:07.774Z,275
2016-10-31T11:10:08.066Z,200
2016-10-31T11:11:07.747Z,190
2016-10-31T11:12:07.741Z,170
2016-10-31T11:13:07.407Z,295
2016-10-31T11:14:07.405Z,455
2016-10-31T11:15:08.340Z,575
2016-10-31T11:16:07.379Z,625
2016-10-31T11:17:07.694Z,465
2016-10-31T11:18:07.360Z,415
2016-10-31T11:19:07.361Z,330
2016-10-31T11:20:07.373Z,320
2016-10-31T11:21:07.960Z,385
2016-10-31T11:22:07.639Z,490
2016-10-31T11:23:07.326Z,550
2016-10-31T11:24:07.311Z,330
2016-10-31T11:25:07.306Z,210
2016-10-31T11:26:07.295Z,265
2016-10-31T11:27:07.595Z,310
2016-10-31T11:28:07.589Z,430
2016-10-31T11:29:07.577Z,365
2016-10-31T11:30:07.262Z,470
2016-10-31T11:31:07.302Z,485
2016-10-31T11:32:07.589Z,405
2016-10-31T11:33:07.243Z,310
2016-10-31T11:34:07.544Z,280
2016-10-31T11:35:07.219Z,270
2016-10-31T11:36:07.214Z,285
2016-10-31T11:37:07.203Z,305
2016-10-31T11:38:07.232Z,395
2016-10-31T11:39:07.198Z,505
2016-10-31T11:40:07.187Z,540
2016-10-31T11:41:07.487Z,460
2016-10-31T11:42:07.168Z,610
2016-10-31T11:43:07.482Z,720
2016-10-31T11:44:07.163Z,845
2016-10-31T11:45:07.146Z,865
2016-10-31T11:46:07.208Z,855
2016-10-31T11:47:07.138Z,850
2016-10-31T11:48:07.134Z,845
2016-10-31T11:49:07.119Z,875
2016-10-31T11:50:07.434Z,910
2016-10-31T11:51:07.123Z,905
2016-10-31T11:52:07.418Z,910
2016-10-31T11:53:07.101Z,945
2016-10-31T11:54:07.099Z,965
2016-10-31T11:55:07.098Z,965
2016-10-31T11:56:07.412Z,960
2016-10-31T11:57:07.398Z,955
2016-10-31T11:58:07.088Z,945
2016-10-31T11:59:07.389Z,935
2016-10-31T12:00:07.082Z,930
2016-10-31T12:01:07.271Z,895
2016-10-31T12:02:07.392Z,870
2016-10-31T12:03:07.076Z,885
2016-10-31T12:04:07.071Z,900
2016-10-31T12:05:07.376Z,910
2016-10-31T12:06:07.424Z,880
2016-10-31T12:07:07.103Z,875
2016-10-31T12:08:07.059Z,940
2016-10-31T12:09:07.051Z,1015
2016-10-31T12:10:07.365Z,985
2016-10-31T12:11:07.045Z,910
2016-10-31T12:12:07.045Z,910
2016-10-31T12:13:07.046Z,925
2016-10-31T12:14:07.354Z,925
2016-10-31T12:15:07.911Z,930
2016-10-31T12:16:07.037Z,930
2016-10-31T12:17:07.035Z,925
2016-10-31T12:18:07.364Z,910
2016-10-31T12:19:07.046Z,925
2016-10-31T12:20:07.030Z,900
2016-10-31T12:21:07.025Z,875
2016-10-31T12:22:07.343Z,865
2016-10-31T12:23:07.339Z,870
2016-10-31T12:24:07.024Z,870
2016-10-31T12:25:07.338Z,840
2016-10-31T12:26:07.342Z,825
2016-10-31T12:27:07.369Z,850
2016-10-31T12:28:07.020Z,870
2016-10-31T12:29:07.017Z,895
2016-10-31T12:30:07.335Z,890
2016-10-31T12:31:07.336Z,885
2016-10-31T12:32:07.327Z,885
2016-10-31T12:33:07.012Z,870
2016-10-31T12:34:07.022Z,840
2016-10-31T12:35:07.645Z,835
2016-10-31T12:36:07.013Z,845
2016-10-31T12:37:07.030Z,845
2016-10-31T12:38:07.330Z,830
2016-10-31T12:39:07.338Z,820
2016-10-31T12:40:07.031Z,840
2016-10-31T12:41:07.332Z,835
2016-10-31T12:42:07.337Z,820
2016-10-31T12:43:07.064Z,810
2016-10-31T12:44:07.053Z,790
2016-10-31T12:45:07.026Z,745
2016-10-31T12:46:07.641Z,725
2016-10-31T12:47:07.011Z,730
2016-10-31T12:48:07.005Z,740
2016-10-31T12:49:07.012Z,750
2016-10-31T12:50:07.004Z,765
2016-10-31T12:51:07.010Z,790
2016-10-31T12:52:07.009Z,780
2016-10-31T12:53:07.045Z,750
2016-10-31T12:54:07.634Z,720
2016-10-31T12:55:07.323Z,715
2016-10-31T12:56:07.013Z,715
2016-10-31T12:57:07.007Z,710
2016-10-31T12:58:07.328Z,710
2016-10-31T12:59:07.020Z,705
2016-10-31T13:00:07.330Z,705
2016-10-31T13:01:07.016Z,700
2016-10-31T13:02:07.017Z,710
2016-10-31T13:03:06.999Z,730
2016-10-31T13:04:07.645Z,720
2016-10-31T13:05:07.642Z,705
2016-10-31T13:06:07.009Z,705
2016-10-31T13:07:07.326Z,705
2016-10-31T13:08:07.632Z,695
2016-10-31T13:09:07.006Z,695
2016-10-31T13:10:07.315Z,675
2016-10-31T13:11:07.011Z,675
2016-10-31T13:12:07.032Z,660
2016-10-31T13:13:07.005Z,655
2016-10-31T13:14:07.005Z,655
2016-10-31T13:15:07.006Z,660
2016-10-31T13:16:07.007Z,665
2016-10-31T13:17:07.007Z,655
2016-10-31T13:18:07.312Z,640
2016-10-31T13:19:07.003Z,655
2016-10-31T13:20:07.316Z,665
2016-10-31T13:21:07.314Z,655
2016-10-31T13:22:07.621Z,635
2016-10-31T13:23:07.929Z,615
2016-10-31T13:24:07.349Z,620
2016-10-31T13:25:06.999Z,615
2016-10-31T13:26:07.005Z,610
2016-10-31T13:27:07.035Z,615
2016-10-31T13:28:07.078Z,615
2016-10-31T13:29:07.005Z,600
2016-10-31T13:30:06.990Z,575
2016-10-31T13:31:07.355Z,565
2016-10-31T13:32:06.991Z,565
2016-10-31T13:33:07.624Z,560
2016-10-31T13:34:07.001Z,555
2016-10-31T13:35:06.991Z,535
2016-10-31T13:36:07.007Z,535
2016-10-31T13:37:07.797Z,530
2016-10-31T13:38:06.993Z,525
2016-10-31T13:39:06.989Z,535
2016-10-31T13:40:06.999Z,545
2016-10-31T13:41:07.303Z,545
2016-10-31T13:42:06.987Z,540
2016-10-31T13:43:07.301Z,525
2016-10-31T13:44:06.988Z,495
2016-10-31T13:45:06.984Z,475
2016-10-31T13:46:06.983Z,460
2016-10-31T13:47:06.981Z,400
2016-10-31T13:48:06.982Z,315
2016-10-31T13:49:06.981Z,340
2016-10-31T13:50:06.979Z,320
2016-10-31T13:51:06.974Z,320
2016-10-31T13:52:07.607Z,260
2016-10-31T13:53:06.970Z,195
2016-10-31T13:54:07.606Z,185
2016-10-31T13:55:07.927Z,190
2016-10-31T13:56:06.971Z,195
2016-10-31T13:57:07.005Z,185
2016-10-31T13:58:06.971Z,170
2016-10-31T13:59:06.976Z,185
2016-10-31T14:00:06.955Z,175
2016-10-31T14:01:07.163Z,160
2016-10-31T14:02:06.990Z,175
2016-10-31T14:03:07.260Z,180
2016-10-31T14:04:06.947Z,190
2016-10-31T14:05:07.276Z,175
2016-10-31T14:06:06.935Z,155
2016-10-31T14:07:07.297Z,165
2016-10-31T14:08:06.933Z,180
2016-10-31T14:09:07.245Z,165
2016-10-31T14:10:07.239Z,155
2016-10-31T14:11:06.913Z,150
2016-10-31T14:12:07.221Z,155
2016-10-31T14:13:07.531Z,190
2016-10-31T14:14:06.902Z,185
2016-10-31T14:15:06.898Z,180
2016-10-31T14:16:07.266Z,180
2016-10-31T14:17:06.889Z,170
2016-10-31T14:18:07.189Z,190